Latest Weather Observations for Sellicks Hill

IDS60801

Issued at 4:02 pm CDT Friday 9 December 2016 (issued every 30 minutes, with the page automatically refreshed every 10 minutes)

About weather observations | Map of weather stations | Latest weather observations for SA | Other Formats
Station Details ID: 023886 Name: MOUNT TERRIBLE RADAR Lat: -35.33 Lon: 138.50 Height: 385.7 m
Data from the previous 72 hours. | See also: Recent months for locations in South Australia
Date/Time
CDT
Temp
°C
App
Temp
°C
Dew
Point
°C
Rel
Hum
%
Delta-T
°C
Wind Press
QNH
hPa
Press
MSL
hPa
Rain since
9am
mm
Dir  Spd
km/h
Gust
km/h
Spd
kts
Gust
kts
09/04:00pm - - - - - S 15 28 8 15 - - -
09/03:30pm - - - - - S 19 30 10 16 - - -
09/03:00pm - - - - - S 13 30 7 16 - - -
09/02:30pm - - - - - S 13 24 7 13 - - -
09/02:00pm - - - - - S 13 26 7 14 - - -
09/01:30pm - - - - - S 13 28 7 15 - - -
09/01:00pm - - - - - SSE 20 33 11 18 - - -
09/12:30pm - - - - - S 17 30 9 16 - - -
09/12:00pm - - - - - S 15 26 8 14 - - -
09/11:30am - - - - - SSW 7 17 4 9 - - -
09/11:00am - - - - - SSE 15 22 8 12 - - -
09/10:30am - - - - - SSE 15 22 8 12 - - -
09/10:00am - - - - - SSW 11 22 6 12 - - -
09/09:30am - - - - - S 13 22 7 12 - - -
09/09:00am - - - - - S 19 24 10 13 - - -
09/08:30am - - - - - S 15 32 8 17 - - -
09/08:00am - - - - - SSW 7 15 4 8 - - -
09/07:30am - - - - - S 9 15 5 8 - - -
09/07:00am - - - - - S 13 17 7 9 - - -
09/06:30am - - - - - S 11 17 6 9 - - -
09/06:00am - - - - - SSW 7 13 4 7 - - -
09/05:30am - - - - - SSW 6 9 3 5 - - -
09/05:00am - - - - - SSW 7 15 4 8 - - -
09/04:30am - - - - - SSW 7 15 4 8 - - -
09/04:00am - - - - - SSW 6 9 3 5 - - -
09/03:30am - - - - - SSW 6 7 3 4 - - -
09/03:00am - - - - - SSW 11 24 6 13 - - -
09/02:30am - - - - - SSW 7 17 4 9 - - -
09/02:00am - - - - - SSW 7 17 4 9 - - -
09/01:30am - - - - - SSW 9 15 5 8 - - -
09/01:00am - - - - - SSW 11 20 6 11 - - -
09/12:30am - - - - - SSW 11 22 6 12 - - -
09/12:00am - - - - - SSW 11 20 6 11 - - -
 
Date/Time
CDT
Temp
°C
App
Temp
°C
Dew
Point
°C
Rel
Hum
%
Delta-T
°C
Wind Press
QNH
hPa
Press
MSL
hPa
Rain since
9am
mm
Dir  Spd
km/h
Gust
km/h
Spd
kts
Gust
kts
08/11:30pm - - - - - SSW 13 26 7 14 - - -
08/11:00pm - - - - - SSW 19 35 10 19 - - -
08/10:30pm - - - - - SSW 9 17 5 9 - - -
08/10:00pm - - - - - SSW 11 20 6 11 - - -
08/09:30pm - - - - - SW 15 30 8 16 - - -
08/09:00pm - - - - - SW 13 22 7 12 - - -
08/08:30pm - - - - - SW 17 35 9 19 - - -
08/08:00pm - - - - - SW 13 26 7 14 - - -
08/07:30pm - - - - - SW 17 33 9 18 - - -
08/07:00pm - - - - - SW 17 32 9 17 - - -
08/06:30pm - - - - - SW 13 28 7 15 - - -
08/06:00pm - - - - - SW 13 26 7 14 - - -
08/05:30pm - - - - - WSW 11 22 6 12 - - -
08/05:00pm - - - - - WSW 15 30 8 16 - - -
08/04:30pm - - - - - W 13 26 7 14 - - -
08/04:00pm - - - - - W 15 39 8 21 - - -
08/03:30pm - - - - - W 13 43 7 23 - - -
08/03:00pm - - - - - WSW 17 37 9 20 - - -
08/02:30pm - - - - - W 17 32 9 17 - - -
08/02:00pm - - - - - W 17 39 9 21 - - -
08/01:30pm - - - - - WNW 19 37 10 20 - - -
08/01:00pm - - - - - WNW 19 39 10 21 - - -
08/12:30pm - - - - - WNW 19 32 10 17 - - -
08/12:00pm - - - - - W 15 26 8 14 - - -
08/11:30am - - - - - W 13 26 7 14 - - -
08/11:00am - - - - - WNW 15 32 8 17 - - -
08/10:30am - - - - - WNW 15 32 8 17 - - -
08/10:00am - - - - - WNW 17 33 9 18 - - -
08/09:30am - - - - - WNW 17 32 9 17 - - -
08/09:00am - - - - - WNW 19 39 10 21 - - -
08/08:30am - - - - - W 19 43 10 23 - - -
08/08:00am - - - - - W 24 50 13 27 - - -
08/07:30am - - - - - W 15 33 8 18 - - -
08/07:00am - - - - - WNW 15 39 8 21 - - -
08/06:30am - - - - - WNW 15 39 8 21 - - -
08/06:00am - - - - - WNW 17 35 9 19 - - -
08/05:30am - - - - - WNW 17 32 9 17 - - -
08/05:00am - - - - - WNW 15 30 8 16 - - -
08/04:30am - - - - - W 15 28 8 15 - - -
08/04:00am - - - - - WNW 20 37 11 20 - - -
08/03:30am - - - - - WNW 19 33 10 18 - - -
08/03:00am - - - - - WNW 20 41 11 22 - - -
08/02:30am - - - - - WNW 19 41 10 22 - - -
08/02:00am - - - - - WNW 17 32 9 17 - - -
08/01:30am - - - - - NW 15 26 8 14 - - -
08/01:01am - - - - - NNW 33 57 18 31 - - -
08/01:00am - - - - - NNW 33 50 18 27 - - -
08/12:44am - - - - - NNW 28 48 15 26 - - -
08/12:30am - - - - - NNW 20 41 11 22 - - -
08/12:04am - - - - - NW 28 54 15 29 - - -
08/12:00am - - - - - NW 22 48 12 26 - - -
 
Date/Time
CDT
Temp
°C
App
Temp
°C
Dew
Point
°C
Rel
Hum
%
Delta-T
°C
Wind Press
QNH
hPa
Press
MSL
hPa
Rain since
9am
mm
Dir  Spd
km/h
Gust
km/h
Spd
kts
Gust
kts
07/11:30pm - - - - - N 15 33 8 18 - - -
07/11:00pm - - - - - N 20 41 11 22 - - -
07/10:30pm - - - - - NNW 22 41 12 22 - - -
07/10:00pm - - - - - NNW 19 39 10 21 - - -
07/09:30pm - - - - - N 11 22 6 12 - - -
07/09:00pm - - - - - N 11 19 6 10 - - -
07/08:30pm - - - - - N 11 20 6 11 - - -
07/08:00pm - - - - - N 9 19 5 10 - - -
07/07:30pm - - - - - N 9 19 5 10 - - -
07/07:00pm - - - - - NNW 11 19 6 10 - - -
07/06:30pm - - - - - NNW 13 24 7 13 - - -
07/06:00pm - - - - - NNW 15 20 8 11 - - -
07/05:30pm - - - - - NNW 11 17 6 9 - - -
07/05:00pm - - - - - NNW 13 20 7 11 - - -
07/04:30pm - - - - - NNW 9 15 5 8 - - -
07/04:00pm - - - - - NNW 11 19 6 10 - - -
07/03:30pm - - - - - NW 11 22 6 12 - - -
07/03:00pm - - - - - NNW 13 26 7 14 - - -
07/02:30pm - - - - - NNW 15 26 8 14 - - -
07/02:00pm - - - - - NNW 17 32 9 17 - - -
07/01:30pm - - - - - NNW 17 32 9 17 - - -
07/01:00pm - - - - - NNW 17 32 9 17 - - -
07/12:30pm - - - - - NNW 17 30 9 16 - - -
07/12:00pm - - - - - NNW 9 19 5 10 - - -
07/11:30am - - - - - NNW 7 17 4 9 - - -
07/11:00am - - - - - NNW 7 13 4 7 - - -
07/10:30am - - - - - NNW 9 15 5 8 - - -
07/10:00am - - - - - N 6 11 3 6 - - -
07/09:30am - - - - - N 6 9 3 5 - - -
07/09:00am - - - - - NNE 6 11 3 6 - - -
07/08:30am - - - - - NE 6 7 3 4 - - -
07/08:00am - - - - - ESE 6 9 3 5 - - -
07/07:30am - - - - - ESE 9 13 5 7 - - -
07/07:00am - - - - - ESE 11 13 6 7 - - -
07/06:30am - - - - - ESE 15 20 8 11 - - -
07/06:00am - - - - - ESE 17 20 9 11 - - -
07/05:30am - - - - - E 19 22 10 12 - - -
07/05:00am - - - - - E 19 26 10 14 - - -
07/04:30am - - - - - ESE 19 26 10 14 - - -
07/04:00am - - - - - ESE 17 22 9 12 - - -
07/03:30am - - - - - ESE 15 22 8 12 - - -
07/03:00am - - - - - ESE 15 20 8 11 - - -
07/02:30am - - - - - ESE 13 20 7 11 - - -
07/02:00am - - - - - ESE 13 19 7 10 - - -
07/01:30am - - - - - ESE 13 19 7 10 - - -
07/01:00am - - - - - ESE 13 17 7 9 - - -
07/12:30am - - - - - SE 15 19 8 10 - - -
07/12:00am - - - - - SE 17 19 9 10 - - -
 
Date/Time
CDT
Temp
°C
App
Temp
°C
Dew
Point
°C
Rel
Hum
%
Delta-T
°C
Wind Press
QNH
hPa
Press
MSL
hPa
Rain since
9am
mm
Dir  Spd
km/h
Gust
km/h
Spd
kts
Gust
kts
06/11:30pm - - - - - ESE 15 19 8 10 - - -
06/11:00pm - - - - - SE 19 20 10 11 - - -
06/10:30pm - - - - - SE 19 22 10 12 - - -
06/10:00pm - - - - - SE 19 22 10 12 - - -
06/09:30pm - - - - - SE 17 20 9 11 - - -
06/09:00pm - - - - - SE 17 20 9 11 - - -
06/08:30pm - - - - - SE 17 20 9 11 - - -
06/08:00pm - - - - - SSE 19 20 10 11 - - -
06/07:30pm - - - - - SSE 17 19 9 10 - - -
06/07:00pm - - - - - SSE 11 15 6 8 - - -
06/06:30pm - - - - - W 4 6 2 3 - - -
06/06:00pm - - - - - W 6 11 3 6 - - -
06/05:30pm - - - - - W 7 13 4 7 - - -
06/05:00pm - - - - - WNW 9 19 5 10 - - -
06/04:30pm - - - - - W 7 15 4 8 - - -

Other Formats:

Comma delimited format used in spreadsheet applications
http://www.bom.gov.au/fwo/IDS60801/IDS60801.95679.axf

JavaScript Object Notation format (JSON) in row-major order
http://www.bom.gov.au/fwo/IDS60801/IDS60801.95679.json